Terminal Aerodrome Forecast
Issued by NWS Wilmington, OH

Home | Current Version | Previous Version | Text Only | Print | Product List | Glossary On
Versions: 1 2 3 4 5 6 7 8 9 10 11 12 13 14 15 16 17 18 19 20 21 22 23 24 25
000
FTUS41 KILN 200931 AAA
TAFCVG
TAF AMD
KCVG 200931Z 2010/2112 21005KT P6SM FEW250
     FM201600 20009KT P6SM SCT250
     FM210400 20009KT P6SM SCT250 WS020/22040KT=

USA.gov is the U.S. government's official web portal to all federal, state and local government web resources and services.